Time;durP1;ratioP1;P1;durP2;ratioP2;P2;SDS_P1;SDS_P2;PMS_P1;PMS_P2;Temp;Humidity;BMP_temperature;BMP_pressure;BME280_temperature;BME280_humidity;BME280_pressure;Samples;Min_cycle;Max_cycle;Signal;HPM_P1;HPM_P2
2022/03/09 00:01:22;;;;;;;;;;;19.00;30.00;;;;;;5038973;28;19928;-56
2022/03/09 00:03:49;;;;;;;;;;;19.00;30.00;;;;;;5029416;28;19943;-54
2022/03/09 00:06:15;;;;;;;;;;;19.00;30.00;;;;;;5044851;28;20269;-50
2022/03/09 00:08:42;;;;;;;;;;;19.00;30.10;;;;;;5051549;28;20075;-55
2022/03/09 00:11:10;;;;;;;;;;;19.00;30.30;;;;;;5041697;28;19967;-49
2022/03/09 00:13:37;;;;;;;;;;;19.00;30.20;;;;;;5054549;28;19920;-50
2022/03/09 00:16:04;;;;;;;;;;;19.00;30.10;;;;;;5044492;28;19921;-49
2022/03/09 00:18:31;;;;;;;;;;;18.90;30.00;;;;;;5047335;28;20311;-52
2022/03/09 00:20:58;;;;;;;;;;;18.90;30.00;;;;;;5040176;28;19964;-56
2022/03/09 00:23:27;;;;;;;;;;;18.90;30.00;;;;;;5047463;28;19931;-51
2022/03/09 00:25:54;;;;;;;;;;;18.90;30.00;;;;;;5038186;28;19956;-57
2022/03/09 00:28:22;;;;;;;;;;;18.90;30.00;;;;;;5036386;28;19924;-51
2022/03/09 00:30:49;;;;;;;;;;;18.90;29.90;;;;;;5040443;28;20168;-57
2022/03/09 00:33:15;;;;;;;;;;;18.90;29.90;;;;;;5037829;28;19932;-51
2022/03/09 00:35:44;;;;;;;;;;;18.90;29.90;;;;;;5041368;28;20300;-53
2022/03/09 00:38:10;;;;;;;;;;;18.90;29.90;;;;;;5052420;28;19921;-52
2022/03/09 00:40:37;;;;;;;;;;;18.90;29.90;;;;;;5048313;28;19920;-53
2022/03/09 00:43:04;;;;;;;;;;;18.80;29.90;;;;;;5032763;28;19930;-51
2022/03/09 00:45:32;;;;;;;;;;;18.80;29.90;;;;;;5065626;28;19935;-58
2022/03/09 00:47:59;;;;;;;;;;;18.90;30.00;;;;;;5043541;28;19999;-52
2022/03/09 00:50:26;;;;;;;;;;;18.80;30.00;;;;;;5065494;28;19974;-51
2022/03/09 00:52:53;;;;;;;;;;;18.80;30.00;;;;;;5042716;28;20376;-50
2022/03/09 00:55:19;;;;;;;;;;;18.80;30.00;;;;;;5042950;28;19925;-48
2022/03/09 00:57:46;;;;;;;;;;;18.80;30.00;;;;;;5048558;28;20251;-44
2022/03/09 01:00:13;;;;;;;;;;;18.80;30.30;;;;;;5036182;28;19925;-49
2022/03/09 01:02:43;;;;;;;;;;;18.90;30.70;;;;;;5049095;28;19993;-45
2022/03/09 01:05:10;;;;;;;;;;;18.90;31.10;;;;;;5046646;28;20339;-45
2022/03/09 01:07:36;;;;;;;;;;;18.90;31.40;;;;;;5047619;28;19920;-48
2022/03/09 01:10:03;;;;;;;;;;;19.00;31.60;;;;;;5034597;28;19964;-50
2022/03/09 01:12:30;;;;;;;;;;;19.00;31.70;;;;;;5049388;28;19955;-46
2022/03/09 01:14:57;;;;;;;;;;;19.10;31.90;;;;;;5041270;28;19927;-48
2022/03/09 01:17:23;;;;;;;;;;;19.10;32.10;;;;;;5044059;28;20389;-45
2022/03/09 01:19:53;;;;;;;;;;;19.10;32.10;;;;;;5044872;28;19950;-43
2022/03/09 01:22:20;;;;;;;;;;;19.10;32.20;;;;;;5049724;28;19931;-44
2022/03/09 01:24:47;;;;;;;;;;;19.20;32.30;;;;;;5051185;28;20250;-43
2022/03/09 01:27:13;;;;;;;;;;;19.20;32.40;;;;;;5070860;28;19920;-46
2022/03/09 01:29:40;;;;;;;;;;;19.20;32.40;;;;;;5054586;28;20404;-47
2022/03/09 01:32:07;;;;;;;;;;;19.20;32.40;;;;;;5057419;28;19920;-43
2022/03/09 01:34:34;;;;;;;;;;;19.30;32.50;;;;;;5072786;28;19927;-43
2022/03/09 01:37:02;;;;;;;;;;;19.30;33.20;;;;;;5050046;28;19986;-47
2022/03/09 01:39:29;;;;;;;;;;;19.30;32.60;;;;;;5033869;28;19979;-44
2022/03/09 01:41:56;;;;;;;;;;;19.30;32.70;;;;;;5039472;28;19943;-45
2022/03/09 01:44:23;;;;;;;;;;;19.30;32.70;;;;;;5034449;28;19928;-44
2022/03/09 01:46:50;;;;;;;;;;;19.40;32.80;;;;;;5050505;28;20518;-44
2022/03/09 01:49:17;;;;;;;;;;;19.40;32.80;;;;;;5052248;28;19920;-44
2022/03/09 01:51:44;;;;;;;;;;;19.40;32.90;;;;;;5051731;28;19988;-43
2022/03/09 01:54:13;;;;;;;;;;;19.40;32.90;;;;;;5043500;28;20008;-50
2022/03/09 01:56:40;;;;;;;;;;;19.40;33.00;;;;;;5065587;28;19929;-46
2022/03/09 01:59:08;;;;;;;;;;;19.40;33.00;;;;;;5058666;28;19974;-43
2022/03/09 02:01:35;;;;;;;;;;;19.40;33.00;;;;;;5054574;28;19920;-43
2022/03/09 02:04:02;;;;;;;;;;;19.50;33.10;;;;;;5072120;28;20418;-44
2022/03/09 02:06:29;;;;;;;;;;;19.50;33.10;;;;;;5042809;28;19959;-48
2022/03/09 02:11:41;;;;;;;;;;;19.50;33.20;;;;;;5034110;28;19935;-46
2022/03/09 02:14:23;;;;;;;;;;;19.50;33.20;;;;;;5045710;28;19974;-49
2022/03/09 02:16:50;;;;;;;;;;;19.50;33.20;;;;;;5049672;28;19974;-45
2022/03/09 02:19:17;;;;;;;;;;;19.50;33.20;;;;;;5050145;28;19920;-45
2022/03/09 02:21:47;;;;;;;;;;;19.50;33.30;;;;;;5050458;28;19925;-49
2022/03/09 02:24:15;;;;;;;;;;;19.50;33.30;;;;;;5050462;28;19920;-46
2022/03/09 02:26:41;;;;;;;;;;;19.50;33.30;;;;;;5047302;28;19967;-45
2022/03/09 02:29:08;;;;;;;;;;;19.50;33.40;;;;;;5044575;28;19956;-49
2022/03/09 02:31:37;;;;;;;;;;;19.50;33.40;;;;;;5063069;28;19920;-49
2022/03/09 02:34:04;;;;;;;;;;;19.60;33.50;;;;;;5065408;28;19964;-47
2022/03/09 02:36:30;;;;;;;;;;;19.60;33.50;;;;;;5033860;28;19925;-47
2022/03/09 02:38:58;;;;;;;;;;;19.60;33.50;;;;;;5049928;28;19924;-47
2022/03/09 02:41:28;;;;;;;;;;;19.60;33.50;;;;;;5047715;28;19928;-46
2022/03/09 02:43:55;;;;;;;;;;;19.60;33.60;;;;;;5047263;28;19920;-46
2022/03/09 02:46:22;;;;;;;;;;;19.60;33.60;;;;;;5052680;28;20567;-46
2022/03/09 02:48:52;;;;;;;;;;;19.60;33.60;;;;;;5067694;28;19929;-47
2022/03/09 02:51:19;;;;;;;;;;;19.60;33.60;;;;;;5052443;28;19928;-47
2022/03/09 02:53:45;;;;;;;;;;;19.60;34.20;;;;;;5036105;28;20415;-48
2022/03/09 02:56:12;;;;;;;;;;;19.60;33.60;;;;;;5049819;28;19975;-45
2022/03/09 02:58:40;;;;;;;;;;;19.60;33.70;;;;;;5049220;28;20440;-47
2022/03/09 03:01:07;;;;;;;;;;;19.60;33.70;;;;;;5052790;28;19920;-44
2022/03/09 03:03:37;;;;;;;;;;;19.60;33.70;;;;;;5052070;28;20403;-43
2022/03/09 03:06:04;;;;;;;;;;;19.60;33.70;;;;;;5056025;28;20340;-47
2022/03/09 03:08:31;;;;;;;;;;;19.60;33.70;;;;;;5037736;28;19933;-44
2022/03/09 03:10:58;;;;;;;;;;;19.60;33.80;;;;;;5069016;28;20320;-46
2022/03/09 03:13:24;;;;;;;;;;;19.60;33.80;;;;;;5067485;28;20258;-48
2022/03/09 03:15:53;;;;;;;;;;;19.60;33.70;;;;;;5039430;28;19925;-45
2022/03/09 03:18:19;;;;;;;;;;;19.60;33.80;;;;;;5045520;28;19924;-49
2022/03/09 03:20:46;;;;;;;;;;;19.60;33.80;;;;;;5045122;28;19983;-45
2022/03/09 03:23:13;;;;;;;;;;;19.60;33.80;;;;;;5047083;28;19951;-45
2022/03/09 03:25:39;;;;;;;;;;;19.70;33.90;;;;;;5068172;28;19984;-48
2022/03/09 03:28:06;;;;;;;;;;;19.70;33.90;;;;;;5037996;28;19920;-50
2022/03/09 03:30:33;;;;;;;;;;;19.70;33.90;;;;;;5056149;28;20598;-50
2022/03/09 03:33:01;;;;;;;;;;;19.70;33.90;;;;;;5048411;28;19971;-45
2022/03/09 03:35:28;;;;;;;;;;;19.70;33.90;;;;;;5051295;28;19958;-45
2022/03/09 03:37:54;;;;;;;;;;;19.70;33.90;;;;;;5034097;28;20016;-44
2022/03/09 03:40:21;;;;;;;;;;;19.70;33.90;;;;;;5033364;28;20051;-45
2022/03/09 03:42:48;;;;;;;;;;;19.70;33.90;;;;;;5050381;28;19928;-45
2022/03/09 03:45:17;;;;;;;;;;;19.70;33.90;;;;;;5046110;28;19926;-49
2022/03/09 03:47:44;;;;;;;;;;;19.70;34.00;;;;;;5043560;28;20256;-46
2022/03/09 03:50:12;;;;;;;;;;;19.70;34.00;;;;;;5043945;28;19924;-47
2022/03/09 03:52:39;;;;;;;;;;;19.70;33.90;;;;;;5051185;28;19920;-44
2022/03/09 03:55:06;;;;;;;;;;;19.70;34.00;;;;;;5062372;28;20369;-44
2022/03/09 03:57:32;;;;;;;;;;;19.70;34.00;;;;;;5047178;28;19921;-47
2022/03/09 03:59:59;;;;;;;;;;;19.70;34.00;;;;;;5033905;28;19948;-44
2022/03/09 04:02:26;;;;;;;;;;;19.70;34.00;;;;;;5060535;28;19925;-50
2022/03/09 04:04:52;;;;;;;;;;;19.70;34.00;;;;;;5041021;28;20269;-44
2022/03/09 04:07:21;;;;;;;;;;;19.70;34.00;;;;;;5040461;28;20031;-50
2022/03/09 04:09:48;;;;;;;;;;;19.70;34.00;;;;;;5045744;28;19920;-48
2022/03/09 04:12:15;;;;;;;;;;;19.70;34.00;;;;;;5063587;28;19924;-47
2022/03/09 04:14:42;;;;;;;;;;;19.70;34.00;;;;;;5069569;28;19921;-46
2022/03/09 04:17:09;;;;;;;;;;;19.70;34.00;;;;;;5068610;28;20274;-45
2022/03/09 04:19:36;;;;;;;;;;;19.70;34.00;;;;;;5044470;28;19921;-46
2022/03/09 04:22:03;;;;;;;;;;;19.70;34.00;;;;;;5051541;28;19959;-44
2022/03/09 04:24:32;;;;;;;;;;;19.70;34.00;;;;;;5043477;28;19933;-44
2022/03/09 04:26:59;;;;;;;;;;;19.70;34.00;;;;;;5047417;28;19926;-47
2022/03/09 04:29:25;;;;;;;;;;;19.70;34.00;;;;;;5049868;28;20011;-51
2022/03/09 04:31:52;;;;;;;;;;;19.70;34.00;;;;;;5038041;28;20306;-45
2022/03/09 04:34:19;;;;;;;;;;;19.70;34.00;;;;;;5065407;28;19925;-44
2022/03/09 04:36:45;;;;;;;;;;;19.70;34.00;;;;;;5036821;28;19927;-44
2022/03/09 04:39:12;;;;;;;;;;;19.70;34.00;;;;;;5063372;28;20031;-44
2022/03/09 04:41:41;;;;;;;;;;;19.70;34.00;;;;;;5045156;28;20346;-44
2022/03/09 04:44:07;;;;;;;;;;;19.70;34.00;;;;;;5049148;28;19920;-50
2022/03/09 04:46:34;;;;;;;;;;;19.70;34.00;;;;;;5038729;28;20044;-49
2022/03/09 04:49:01;;;;;;;;;;;19.70;34.00;;;;;;5065845;28;20410;-49
2022/03/09 04:51:27;;;;;;;;;;;19.70;34.00;;;;;;5039905;28;19999;-49
2022/03/09 04:53:56;;;;;;;;;;;19.70;34.00;;;;;;5045821;28;19920;-46
2022/03/09 04:56:22;;;;;;;;;;;19.70;34.00;;;;;;5040214;28;19925;-46
2022/03/09 04:58:50;;;;;;;;;;;19.80;34.10;;;;;;5055184;28;19921;-48
2022/03/09 05:01:17;;;;;;;;;;;19.70;34.00;;;;;;5043570;28;20301;-45
2022/03/09 05:03:44;;;;;;;;;;;19.80;34.10;;;;;;5071812;28;20361;-44
2022/03/09 05:06:11;;;;;;;;;;;19.80;34.10;;;;;;5059209;28;20301;-44
2022/03/09 05:08:37;;;;;;;;;;;19.70;34.00;;;;;;5050506;28;19920;-47
2022/03/09 05:11:06;;;;;;;;;;;19.80;34.10;;;;;;5046227;28;19947;-49
2022/03/09 05:13:33;;;;;;;;;;;19.70;34.00;;;;;;5053477;28;19928;-45
2022/03/09 05:16:05;;;;;;;;;;;19.70;34.10;;;;;;5051948;28;20374;-48
2022/03/09 05:18:32;;;;;;;;;;;19.70;34.00;;;;;;5042981;28;19921;-44
2022/03/09 05:20:59;;;;;;;;;;;19.80;34.10;;;;;;5052412;28;20015;-44
2022/03/09 05:23:25;;;;;;;;;;;19.70;34.00;;;;;;5052119;28;20126;-44
2022/03/09 05:25:52;;;;;;;;;;;19.80;34.10;;;;;;5064925;28;19967;-46
2022/03/09 05:28:19;;;;;;;;;;;19.80;34.10;;;;;;5045104;28;19927;-45
2022/03/09 05:30:45;;;;;;;;;;;19.80;34.10;;;;;;5061218;28;20268;-46
2022/03/09 05:33:13;;;;;;;;;;;19.80;34.10;;;;;;5039891;28;19933;-48
2022/03/09 05:35:40;;;;;;;;;;;19.80;34.10;;;;;;5067882;28;19927;-47
2022/03/09 05:38:07;;;;;;;;;;;19.70;34.00;;;;;;5070803;28;19931;-46
2022/03/09 05:40:34;;;;;;;;;;;19.70;34.00;;;;;;5052721;28;20025;-47
2022/03/09 05:43:00;;;;;;;;;;;19.80;34.10;;;;;;5045366;28;20347;-48
2022/03/09 05:45:27;;;;;;;;;;;19.80;34.10;;;;;;5049616;28;19929;-44
2022/03/09 05:47:54;;;;;;;;;;;19.80;34.10;;;;;;5059548;28;20350;-47
2022/03/09 05:50:22;;;;;;;;;;;19.80;34.10;;;;;;5049057;28;19932;-45
2022/03/09 05:52:49;;;;;;;;;;;19.70;34.00;;;;;;5059806;28;19982;-46
2022/03/09 05:55:16;;;;;;;;;;;19.80;34.10;;;;;;5053317;28;20271;-44
2022/03/09 05:57:43;;;;;;;;;;;19.80;34.10;;;;;;5047402;28;20315;-47
2022/03/09 06:00:10;;;;;;;;;;;19.80;34.10;;;;;;5033090;28;19940;-45
2022/03/09 06:02:36;;;;;;;;;;;19.80;34.00;;;;;;5045385;28;19920;-46
2022/03/09 06:05:05;;;;;;;;;;;19.80;34.10;;;;;;5064708;28;20277;-43
2022/03/09 06:07:34;;;;;;;;;;;19.70;34.00;;;;;;5053946;28;19920;-45
2022/03/09 06:10:02;;;;;;;;;;;19.80;34.10;;;;;;5040613;28;19920;-43
2022/03/09 06:12:29;;;;;;;;;;;19.80;34.10;;;;;;5041703;28;19966;-44
2022/03/09 06:14:56;;;;;;;;;;;19.80;34.00;;;;;;5059886;28;19921;-48
2022/03/09 06:17:23;;;;;;;;;;;19.80;34.00;;;;;;5045068;28;19932;-45
2022/03/09 06:19:49;;;;;;;;;;;19.80;34.10;;;;;;5044087;28;20273;-44
2022/03/09 06:22:16;;;;;;;;;;;19.80;34.00;;;;;;5043386;28;19920;-45
2022/03/09 06:24:44;;;;;;;;;;;19.80;34.10;;;;;;5066722;28;19932;-45
2022/03/09 06:27:11;;;;;;;;;;;19.80;34.00;;;;;;5046076;28;19933;-45
2022/03/09 06:29:38;;;;;;;;;;;19.80;34.00;;;;;;5058443;28;20174;-48
2022/03/09 06:32:05;;;;;;;;;;;19.80;34.00;;;;;;5046227;28;19933;-46
2022/03/09 06:34:33;;;;;;;;;;;19.80;34.00;;;;;;5045020;28;19927;-48
2022/03/09 06:37:00;;;;;;;;;;;19.80;34.00;;;;;;5047994;28;19944;-47
2022/03/09 06:39:26;;;;;;;;;;;19.80;34.00;;;;;;5042729;28;20019;-44
2022/03/09 06:41:56;;;;;;;;;;;19.80;34.00;;;;;;5047698;28;19924;-46
2022/03/09 06:44:23;;;;;;;;;;;19.70;33.90;;;;;;5060395;28;19939;-46
2022/03/09 06:46:50;;;;;;;;;;;19.80;34.00;;;;;;5045351;28;20415;-45
2022/03/09 06:49:17;;;;;;;;;;;19.80;34.00;;;;;;5043643;28;19925;-45
2022/03/09 06:51:44;;;;;;;;;;;19.80;34.00;;;;;;5044761;28;20366;-43
2022/03/09 06:54:10;;;;;;;;;;;19.80;34.00;;;;;;5062867;28;19966;-46
2022/03/09 06:56:37;;;;;;;;;;;19.80;34.00;;;;;;5041555;28;19943;-45
2022/03/09 06:59:05;;;;;;;;;;;19.80;34.00;;;;;;5044191;28;20263;-45
2022/03/09 07:01:33;;;;;;;;;;;19.80;34.00;;;;;;5042148;28;19924;-46
2022/03/09 07:03:59;;;;;;;;;;;19.80;33.90;;;;;;5043822;28;19924;-49
2022/03/09 07:06:27;;;;;;;;;;;19.80;33.90;;;;;;5063796;28;19965;-44
2022/03/09 07:08:55;;;;;;;;;;;19.80;33.90;;;;;;5045858;28;19931;-44
2022/03/09 07:11:22;;;;;;;;;;;19.80;34.00;;;;;;5047297;28;19921;-44
2022/03/09 07:13:49;;;;;;;;;;;19.80;34.00;;;;;;5042067;28;20024;-47
2022/03/09 07:16:17;;;;;;;;;;;19.80;34.00;;;;;;5062973;28;19942;-45
2022/03/09 07:18:44;;;;;;;;;;;19.80;34.00;;;;;;5042456;28;20311;-46
2022/03/09 07:21:13;;;;;;;;;;;19.80;34.00;;;;;;5043926;28;19924;-49
2022/03/09 07:23:40;;;;;;;;;;;19.80;34.00;;;;;;5061889;28;19967;-45
2022/03/09 07:26:06;;;;;;;;;;;19.80;34.00;;;;;;5062908;28;19920;-47
2022/03/09 07:28:33;;;;;;;;;;;19.80;34.00;;;;;;5051353;28;19924;-45
2022/03/09 07:31:00;;;;;;;;;;;19.80;34.00;;;;;;5062277;28;19970;-44
2022/03/09 07:33:28;;;;;;;;;;;19.80;33.90;;;;;;5044427;28;20019;-44
2022/03/09 07:35:56;;;;;;;;;;;19.80;33.90;;;;;;5064240;28;19925;-46
2022/03/09 07:38:23;;;;;;;;;;;19.80;33.90;;;;;;5023246;28;19921;-44
2022/03/09 07:40:50;;;;;;;;;;;19.80;34.00;;;;;;5040988;28;19933;-45
2022/03/09 07:43:17;;;;;;;;;;;19.80;34.00;;;;;;5044438;28;20019;-44
2022/03/09 07:45:44;;;;;;;;;;;19.80;33.90;;;;;;5043655;28;19927;-47
2022/03/09 07:48:10;;;;;;;;;;;19.80;33.90;;;;;;5044463;28;19920;-43
2022/03/09 07:50:38;;;;;;;;;;;19.80;33.90;;;;;;5065288;28;19959;-46
2022/03/09 07:53:05;;;;;;;;;;;19.80;33.90;;;;;;5045551;28;19928;-47
2022/03/09 07:55:33;;;;;;;;;;;19.80;33.90;;;;;;5051486;28;19921;-44
2022/03/09 07:57:59;;;;;;;;;;;19.80;33.90;;;;;;5036352;28;20087;-44
2022/03/09 08:00:27;;;;;;;;;;;19.80;33.90;;;;;;5045334;28;19921;-46
2022/03/09 08:02:53;;;;;;;;;;;19.80;33.60;;;;;;5059707;28;19980;-44
2022/03/09 08:05:22;;;;;;;;;;;19.80;33.60;;;;;;5063872;28;20011;-46
2022/03/09 08:07:50;;;;;;;;;;;19.80;33.60;;;;;;5061814;28;19960;-44
2022/03/09 08:10:19;;;;;;;;;;;19.80;33.60;;;;;;5059237;28;20011;-42
2022/03/09 08:12:47;;;;;;;;;;;19.90;33.60;;;;;;5042946;28;20271;-43
2022/03/09 08:15:13;;;;;;;;;;;19.80;33.60;;;;;;5040263;28;20132;-48
2022/03/09 08:17:40;;;;;;;;;;;19.90;34.10;;;;;;5050512;28;19935;-46
2022/03/09 08:20:07;;;;;;;;;;;19.90;33.50;;;;;;5040059;28;19967;-50
2022/03/09 08:22:34;;;;;;;;;;;19.80;33.40;;;;;;5042706;28;20047;-43
2022/03/09 08:25:02;;;;;;;;;;;19.90;33.50;;;;;;5046020;28;20393;-42
2022/03/09 08:27:29;;;;;;;;;;;19.90;33.50;;;;;;5048192;28;19925;-45
2022/03/09 08:29:56;;;;;;;;;;;19.80;33.30;;;;;;5050262;28;19924;-45
2022/03/09 08:32:23;;;;;;;;;;;19.90;33.40;;;;;;5047506;28;19924;-44
2022/03/09 08:34:49;;;;;;;;;;;19.90;33.40;;;;;;5043382;28;20316;-46
2022/03/09 08:37:16;;;;;;;;;;;19.90;33.40;;;;;;5041547;28;19944;-47
2022/03/09 08:39:45;;;;;;;;;;;19.90;33.40;;;;;;5048038;28;20175;-47
2022/03/09 08:42:13;;;;;;;;;;;19.90;33.40;;;;;;5029492;28;20066;-48
2022/03/09 08:44:40;;;;;;;;;;;19.90;33.40;;;;;;5047269;28;19997;-42
2022/03/09 08:47:07;;;;;;;;;;;19.90;33.40;;;;;;5041430;28;19978;-47
2022/03/09 08:49:35;;;;;;;;;;;19.90;33.40;;;;;;5065815;28;20377;-42
2022/03/09 08:52:02;;;;;;;;;;;19.90;34.00;;;;;;5073221;28;19989;-45
2022/03/09 08:54:29;;;;;;;;;;;19.90;33.40;;;;;;5061615;28;19920;-43
2022/03/09 08:56:55;;;;;;;;;;;19.90;33.30;;;;;;5061744;28;20380;-43
2022/03/09 08:59:23;;;;;;;;;;;19.90;33.30;;;;;;5061453;28;19999;-45
2022/03/09 09:01:50;;;;;;;;;;;19.90;33.20;;;;;;5061376;28;19921;-45
2022/03/09 09:04:17;;;;;;;;;;;19.90;33.20;;;;;;5061350;28;19927;-43
2022/03/09 09:06:44;;;;;;;;;;;19.90;33.20;;;;;;5042496;28;19925;-45
2022/03/09 09:09:11;;;;;;;;;;;19.90;33.10;;;;;;5040850;28;20009;-45
2022/03/09 09:11:38;;;;;;;;;;;19.90;33.00;;;;;;5059262;28;19960;-43
2022/03/09 09:14:05;;;;;;;;;;;19.90;32.80;;;;;;5047003;28;20298;-42
2022/03/09 09:16:33;;;;;;;;;;;19.90;32.70;;;;;;5046556;28;19928;-42
2022/03/09 09:19:01;;;;;;;;;;;19.90;32.70;;;;;;5044154;28;19920;-46
2022/03/09 09:21:28;;;;;;;;;;;19.90;32.60;;;;;;5061549;28;19931;-42
2022/03/09 09:23:55;;;;;;;;;;;19.90;32.50;;;;;;5042835;28;19928;-45
2022/03/09 09:26:22;;;;;;;;;;;19.90;32.50;;;;;;5044757;28;20009;-46
2022/03/09 09:28:49;;;;;;;;;;;19.90;32.50;;;;;;5048848;28;20393;-44
2022/03/09 09:31:16;;;;;;;;;;;19.90;32.50;;;;;;5045013;28;19974;-46
2022/03/09 09:33:44;;;;;;;;;;;19.90;32.50;;;;;;5062257;28;19956;-44
2022/03/09 09:36:11;;;;;;;;;;;19.90;32.50;;;;;;5039117;28;19924;-45
2022/03/09 09:38:38;;;;;;;;;;;19.90;32.40;;;;;;5045504;28;19920;-43
2022/03/09 09:41:08;;;;;;;;;;;19.90;32.30;;;;;;5043209;28;19932;-45
2022/03/09 09:43:35;;;;;;;;;;;19.90;32.30;;;;;;5044707;28;19951;-42
2022/03/09 09:46:01;;;;;;;;;;;19.90;32.30;;;;;;5045772;28;20381;-45
2022/03/09 09:48:28;;;;;;;;;;;19.90;32.30;;;;;;5045179;28;19921;-44
2022/03/09 09:50:56;;;;;;;;;;;19.90;32.30;;;;;;5045985;28;20002;-44
2022/03/09 09:53:23;;;;;;;;;;;19.90;32.30;;;;;;5066802;28;20326;-44
2022/03/09 09:55:50;;;;;;;;;;;19.90;32.30;;;;;;5048175;28;19966;-45
2022/03/09 09:58:19;;;;;;;;;;;19.90;32.30;;;;;;5044443;28;19937;-43
2022/03/09 10:00:46;;;;;;;;;;;19.90;32.40;;;;;;5046554;28;20019;-44
2022/03/09 10:03:13;;;;;;;;;;;19.90;32.40;;;;;;5050709;28;20017;-43
2022/03/09 10:05:40;;;;;;;;;;;19.90;32.40;;;;;;5059089;28;19920;-46
2022/03/09 10:08:16;;;;;;;;;;;19.90;32.40;;;;;;5048462;28;20023;-42
2022/03/09 10:10:43;;;;;;;;;;;19.90;32.50;;;;;;5042344;28;19930;-44
2022/03/09 10:13:11;;;;;;;;;;;19.90;32.50;;;;;;5044160;28;20038;-43
2022/03/09 10:15:37;;;;;;;;;;;19.90;32.40;;;;;;5041166;28;20294;-44
2022/03/09 10:18:17;;;;;;;;;;;19.90;32.50;;;;;;5046476;28;19994;-45
2022/03/09 10:20:44;;;;;;;;;;;19.90;32.50;;;;;;5058309;28;19925;-48
2022/03/09 10:23:11;;;;;;;;;;;20.00;32.60;;;;;;5040695;28;19928;-45
2022/03/09 10:25:40;;;;;;;;;;;19.90;32.50;;;;;;5036468;28;19994;-46
2022/03/09 10:28:08;;;;;;;;;;;20.00;32.60;;;;;;5043990;28;19935;-43
2022/03/09 10:30:35;;;;;;;;;;;20.00;32.60;;;;;;5038002;28;20000;-47
2022/03/09 10:33:02;;;;;;;;;;;19.90;32.50;;;;;;5039137;28;20292;-44
2022/03/09 10:35:40;;;;;;;;;;;20.00;32.70;;;;;;5045165;28;19948;-44
2022/03/09 10:38:07;;;;;;;;;;;20.00;32.70;;;;;;5041804;28;20007;-47
2022/03/09 10:40:39;;;;;;;;;;;20.00;32.60;;;;;;5046225;28;20592;-45
2022/03/09 10:43:10;;;;;;;;;;;20.00;32.60;;;;;;5047644;28;19920;-45
2022/03/09 10:45:37;;;;;;;;;;;19.90;32.50;;;;;;5038548;28;19920;-46
2022/03/09 10:48:06;;;;;;;;;;;20.00;32.60;;;;;;5059277;28;19932;-45
2022/03/09 10:50:33;;;;;;;;;;;20.00;32.60;;;;;;5040500;28;20312;-44
2022/03/09 10:53:02;;;;;;;;;;;20.00;32.60;;;;;;5044542;28;20562;-49
2022/03/09 10:55:32;;;;;;;;;;;20.00;32.60;;;;;;5049345;28;19921;-43
2022/03/09 10:58:11;;;;;;;;;;;20.00;32.60;;;;;;5042924;28;20656;-44
2022/03/09 11:00:38;;;;;;;;;;;20.00;32.60;;;;;;5057308;28;19925;-43
2022/03/09 11:03:05;;;;;;;;;;;20.00;32.70;;;;;;5061876;28;20002;-42
2022/03/09 11:05:32;;;;;;;;;;;20.00;32.70;;;;;;5048403;28;19971;-44
2022/03/09 11:07:59;;;;;;;;;;;20.00;32.70;;;;;;5041079;28;20019;-47
2022/03/09 11:10:28;;;;;;;;;;;20.00;32.60;;;;;;5061964;28;19973;-46
2022/03/09 11:12:55;;;;;;;;;;;20.00;32.50;;;;;;5040084;28;20459;-46
2022/03/09 11:15:24;;;;;;;;;;;20.00;32.40;;;;;;5045774;28;20374;-47
2022/03/09 11:17:51;;;;;;;;;;;20.00;32.40;;;;;;5033530;28;20314;-48
2022/03/09 11:20:17;;;;;;;;;;;20.00;32.40;;;;;;5039530;28;19920;-44
2022/03/09 11:22:44;;;;;;;;;;;20.00;32.40;;;;;;5052361;28;19928;-48
2022/03/09 11:25:11;;;;;;;;;;;20.00;32.40;;;;;;5050726;28;19921;-44
2022/03/09 11:27:42;;;;;;;;;;;20.00;32.40;;;;;;5040143;28;19924;-43
2022/03/09 11:30:21;;;;;;;;;;;20.00;32.30;;;;;;5044037;28;19943;-42
2022/03/09 11:32:51;;;;;;;;;;;20.00;32.30;;;;;;5051675;28;19932;-46
2022/03/09 11:35:32;;;;;;;;;;;20.00;32.20;;;;;;5048231;28;19971;-43
2022/03/09 11:38:00;;;;;;;;;;;20.00;32.20;;;;;;5048137;28;20391;-43
2022/03/09 11:40:27;;;;;;;;;;;20.00;32.20;;;;;;5061030;28;19927;-42
2022/03/09 11:42:53;;;;;;;;;;;20.00;32.10;;;;;;5042356;28;19927;-43
2022/03/09 11:45:38;;;;;;;;;;;20.00;32.70;;;;;;5042721;28;20025;-43
2022/03/09 11:48:08;;;;;;;;;;;20.00;32.00;;;;;;5064275;28;20465;-44
2022/03/09 11:50:36;;;;;;;;;;;20.00;32.00;;;;;;5062940;28;19920;-49
2022/03/09 11:53:03;;;;;;;;;;;20.00;32.00;;;;;;5045895;28;19920;-43
2022/03/09 11:55:30;;;;;;;;;;;20.00;32.00;;;;;;5042364;28;20358;-43
2022/03/09 11:58:08;;;;;;;;;;;20.00;32.00;;;;;;5059105;28;19920;-44
2022/03/09 12:00:34;;;;;;;;;;;20.00;32.00;;;;;;5043194;28;19921;-45
2022/03/09 12:03:01;;;;;;;;;;;20.00;32.10;;;;;;5046989;28;19971;-44
2022/03/09 12:05:39;;;;;;;;;;;20.00;32.10;;;;;;5058014;28;20623;-43
2022/03/09 12:08:06;;;;;;;;;;;20.00;32.10;;;;;;5060140;28;19920;-44
2022/03/09 12:10:49;;;;;;;;;;;20.00;32.10;;;;;;5041345;28;19936;-44
2022/03/09 12:13:35;;;;;;;;;;;20.00;32.20;;;;;;5041207;28;19932;-43
2022/03/09 12:16:03;;;;;;;;;;;20.00;32.20;;;;;;5058628;28;19968;-43
2022/03/09 12:18:34;;;;;;;;;;;20.00;32.20;;;;;;5057839;28;19978;-44
2022/03/09 12:21:02;;;;;;;;;;;20.00;32.20;;;;;;5042882;28;19925;-44
2022/03/09 12:23:28;;;;;;;;;;;20.00;32.30;;;;;;5038142;28;19959;-44
2022/03/09 12:25:58;;;;;;;;;;;20.00;32.30;;;;;;5058537;28;19933;-43
2022/03/09 12:28:49;;;;;;;;;;;20.00;32.30;;;;;;5042271;28;19935;-43
2022/03/09 12:31:20;;;;;;;;;;;20.00;32.40;;;;;;5026461;28;19927;-43
2022/03/09 12:33:51;;;;;;;;;;;20.00;32.50;;;;;;5045182;28;20011;-44
2022/03/09 12:36:19;;;;;;;;;;;20.00;32.50;;;;;;5042997;28;19925;-46
2022/03/09 12:38:46;;;;;;;;;;;20.00;32.60;;;;;;5065267;28;20051;-44
2022/03/09 12:41:26;;;;;;;;;;;20.00;32.60;;;;;;5064096;28;19971;-47
2022/03/09 12:43:53;;;;;;;;;;;20.10;32.70;;;;;;5044590;28;19935;-46
2022/03/09 12:46:20;;;;;;;;;;;20.10;32.80;;;;;;5054764;28;19927;-45
2022/03/09 12:48:47;;;;;;;;;;;20.10;32.80;;;;;;5043302;28;19970;-45
2022/03/09 12:51:13;;;;;;;;;;;20.10;32.80;;;;;;5035653;28;19931;-48
2022/03/09 12:53:44;;;;;;;;;;;20.10;32.80;;;;;;5050349;28;19925;-47
2022/03/09 12:56:14;;;;;;;;;;;20.10;32.80;;;;;;5043301;28;19924;-47
2022/03/09 12:58:41;;;;;;;;;;;20.10;32.70;;;;;;5059189;28;19924;-47
2022/03/09 13:01:08;;;;;;;;;;;20.10;32.70;;;;;;5049049;28;19924;-50
2022/03/09 13:03:35;;;;;;;;;;;20.10;32.60;;;;;;5037633;28;20394;-48
2022/03/09 13:06:04;;;;;;;;;;;20.10;32.60;;;;;;5053478;28;19975;-45
2022/03/09 13:08:33;;;;;;;;;;;20.10;32.60;;;;;;5043094;28;19964;-45
2022/03/09 13:11:01;;;;;;;;;;;20.10;32.50;;;;;;5046535;28;19920;-48
2022/03/09 13:13:31;;;;;;;;;;;20.10;32.50;;;;;;5052053;28;19930;-49
2022/03/09 13:15:59;;;;;;;;;;;20.10;32.50;;;;;;5051123;28;19963;-45
2022/03/09 13:18:26;;;;;;;;;;;20.10;32.50;;;;;;5070133;28;19956;-45
2022/03/09 13:20:53;;;;;;;;;;;20.10;32.40;;;;;;5053081;28;19932;-44
2022/03/09 13:23:24;;;;;;;;;;;20.10;32.40;;;;;;5050652;28;19983;-44
2022/03/09 13:25:50;;;;;;;;;;;20.10;32.30;;;;;;5063545;28;19960;-42
2022/03/09 13:28:25;;;;;;;;;;;20.10;32.10;;;;;;5054346;28;19922;-47
2022/03/09 13:30:52;;;;;;;;;;;20.10;31.90;;;;;;5066466;28;19920;-44
2022/03/09 13:33:21;;;;;;;;;;;20.10;31.90;;;;;;5043194;28;20219;-48
2022/03/09 13:35:48;;;;;;;;;;;20.10;31.90;;;;;;5060164;28;19952;-44
2022/03/09 13:38:20;;;;;;;;;;;20.10;32.00;;;;;;5048593;28;20180;-46
2022/03/09 13:40:46;;;;;;;;;;;20.10;32.00;;;;;;5063913;28;19921;-47
2022/03/09 13:43:13;;;;;;;;;;;20.10;31.90;;;;;;5041272;28;19924;-44
2022/03/09 13:45:41;;;;;;;;;;;20.10;31.90;;;;;;5053376;28;20310;-42
2022/03/09 13:48:10;;;;;;;;;;;20.10;31.80;;;;;;5042411;28;19925;-44
2022/03/09 13:50:42;;;;;;;;;;;20.10;31.80;;;;;;5048546;28;20397;-48
2022/03/09 13:53:10;;;;;;;;;;;20.10;31.80;;;;;;5051034;28;20443;-45
2022/03/09 13:55:40;;;;;;;;;;;20.10;31.90;;;;;;5043757;28;19933;-44
2022/03/09 13:58:07;;;;;;;;;;;20.10;32.00;;;;;;5050854;28;19924;-43
2022/03/09 14:00:37;;;;;;;;;;;20.10;32.10;;;;;;5068702;28;19996;-44
2022/03/09 14:03:09;;;;;;;;;;;20.10;32.10;;;;;;5019525;28;20318;-47
2022/03/09 14:05:37;;;;;;;;;;;20.10;32.20;;;;;;5034783;28;20385;-43
2022/03/09 14:08:04;;;;;;;;;;;20.10;32.20;;;;;;5059497;28;19920;-46
2022/03/09 14:10:32;;;;;;;;;;;20.10;32.20;;;;;;5062406;28;19940;-41
2022/03/09 14:13:06;;;;;;;;;;;20.10;32.30;;;;;;5040894;28;19921;-48
2022/03/09 14:15:33;;;;;;;;;;;20.10;32.40;;;;;;5045500;28;19928;-45
2022/03/09 14:18:00;;;;;;;;;;;20.20;32.50;;;;;;5042848;28;20047;-49
2022/03/09 14:20:28;;;;;;;;;;;20.20;32.50;;;;;;5040626;28;19944;-43
2022/03/09 14:22:55;;;;;;;;;;;20.20;32.50;;;;;;5062158;28;19970;-44